Lewistown Municipal Airport
KLWT : now visible

Airfield :











YOU CAN JOIN US ON...

 
LOGIN :

Register | Disclaimer

   EN    FR    IT 

 









Legend :    VFR   Marginal VFR   IFR   Intensive IFR   Very Intensive IFR
Visi :
Ceiling :
>= 8 km
>= 3000ft
5 to 8 km
1000 to 3000 ft
1500m to 5 km
500 to 1000 ft
800 to 1500m
200 to 500 ft
< 800m
< 200 ft
Symbols :   Thunderstorms  Fog  Heavy snow  Heavy precipitations  Wind > 20 kt






- Airport Elevation : 4170 ft
- IATA code : LWT


KLWT - Lewistown Municipal

CURRENT METAR :
  • 142054Z AUTO 00000KT 10SM FEW033 BKN065 OVC080 M02/M06 A2973 RMK AO2 SLP110 60000 T10221056 58006 $

EXPIRED METARs :
  • 141954Z AUTO 00000KT 10SM OVC035 M03/M06 A2974 RMK AO2 SLP112 T10281061 /
  • 141854Z AUTO 00000KT 10SM BKN035 OVC075 M05/M07 A2975 RMK AO2 SNB1757E07 SLP120 P0000 T10501067 $

TAF KLWT
Valid from the 14 at 18:00 until the 15 at 18:00 UTC


141723Z 1418/1518 VRB05KT P6SM BKN070
FM150000 VRB05KT P6SM SCT015 BKN025
PROB30 1507/1510 4SM -SHSN BKN020



MET'MAP, your aeronautical weather chart ! - Copyright ORBIFLY December 2007 - Disclaimer

ORBIFLY MET'MAP TEAM :

Programming & Development : Alexandra Zaïnal
Concept & original design : Baudouin d'Aumeries
Assistance for programming : Marc-Olivier Méhu
Technical & hardware support : Manuel Goepfert

Contact : metmap@orbifly.com




SOURCES & CREDITS :

   NOAA       Earth
Advisory